Time;durP1;ratioP1;P1;durP2;ratioP2;P2;SDS_P1;SDS_P2;PMS_P1;PMS_P2;Temp;Humidity;BMP_temperature;BMP_pressure;BME280_temperature;BME280_humidity;BME280_pressure;Samples;Min_cycle;Max_cycle;Signal;HPM_P1;HPM_P2
2021/09/16 00:00:29;;;;;;;6.43;5.25;;;18.40;96.00;;;;;;5053949;28;20028;-68
2021/09/16 00:02:55;;;;;;;7.70;5.43;;;18.40;96.00;;;;;;5053182;28;20044;-68
2021/09/16 00:05:21;;;;;;;7.35;5.07;;;18.40;96.00;;;;;;5071706;28;20489;-68
2021/09/16 00:07:46;;;;;;;7.88;5.55;;;18.40;96.30;;;;;;5071540;28;20043;-68
2021/09/16 00:10:13;;;;;;;6.90;4.93;;;18.40;96.10;;;;;;5053744;28;20040;-68
2021/09/16 00:12:39;;;;;;;6.60;4.80;;;18.30;96.10;;;;;;5070377;28;20389;-68
2021/09/16 00:15:07;;;;;;;7.45;4.82;;;18.30;96.20;;;;;;5052604;28;20033;-68
2021/09/16 00:17:32;;;;;;;6.22;5.20;;;18.30;96.20;;;;;;5051429;28;20037;-68
2021/09/16 00:19:58;;;;;;;5.53;4.40;;;18.40;96.20;;;;;;5050962;28;20021;-68
2021/09/16 00:22:24;;;;;;;7.82;4.75;;;18.40;96.10;;;;;;5051458;28;20095;-68
2021/09/16 00:24:49;;;;;;;5.75;4.65;;;18.30;96.10;;;;;;5050822;28;20009;-68
2021/09/16 00:27:15;;;;;;;6.20;4.80;;;18.30;96.10;;;;;;5051044;28;20029;-68
2021/09/16 00:29:40;;;;;;;5.53;3.95;;;18.30;96.10;;;;;;5050962;28;20028;-68
2021/09/16 00:32:06;;;;;;;8.27;4.00;;;18.30;96.10;;;;;;5051105;28;20037;-68
2021/09/16 00:34:32;;;;;;;7.00;4.22;;;18.30;96.10;;;;;;5032452;28;20438;-68
2021/09/16 00:36:58;;;;;;;6.70;4.55;;;18.30;96.20;;;;;;5032969;28;20086;-68
2021/09/16 00:39:23;;;;;;;5.13;4.60;;;18.30;96.20;;;;;;5051016;28;20017;-68
2021/09/16 00:41:49;;;;;;;6.47;4.68;;;18.30;96.20;;;;;;5051206;28;20052;-68
2021/09/16 00:44:15;;;;;;;5.95;4.75;;;18.30;96.20;;;;;;5050277;28;20067;-68
2021/09/16 00:46:40;;;;;;;9.90;4.60;;;18.30;96.20;;;;;;5050788;28;20121;-68
2021/09/16 00:49:06;;;;;;;5.90;4.22;;;18.30;96.20;;;;;;5032821;28;20017;-68
2021/09/16 00:51:33;;;;;;;5.47;4.20;;;18.30;96.20;;;;;;5069495;28;20099;-68
2021/09/16 00:54:02;;;;;;;4.18;3.78;;;18.30;96.20;;;;;;5052441;28;20185;-68
2021/09/16 00:56:28;;;;;;;5.90;4.15;;;18.30;96.20;;;;;;5052608;28;20025;-68
2021/09/16 00:58:58;;;;;;;5.72;4.20;;;18.30;96.20;;;;;;5070766;28;20031;-68
2021/09/16 01:01:23;;;;;;;4.40;4.00;;;18.30;96.30;;;;;;5068756;28;20021;-68
2021/09/16 01:03:49;;;;;;;4.53;3.63;;;18.30;96.30;;;;;;5070142;28;20499;-68
2021/09/16 01:06:16;;;;;;;4.40;4.00;;;18.30;96.20;;;;;;5070373;28;20021;-68
2021/09/16 01:08:42;;;;;;;4.10;3.70;;;18.20;96.20;;;;;;5070781;28;20333;-68
2021/09/16 01:11:08;;;;;;;6.05;3.58;;;18.20;96.30;;;;;;5070486;28;20078;-68
2021/09/16 01:13:33;;;;;;;6.13;3.70;;;18.30;96.30;;;;;;5070195;28;20078;-68
2021/09/16 01:15:59;;;;;;;5.30;3.70;;;18.30;96.30;;;;;;5051231;28;20074;-68
2021/09/16 01:18:26;;;;;;;5.75;3.67;;;18.20;96.20;;;;;;5050124;28;20025;-68
2021/09/16 01:20:53;;;;;;;5.32;3.22;;;18.20;96.20;;;;;;5050369;28;20021;-68
2021/09/16 01:23:19;;;;;;;4.40;3.55;;;18.20;96.20;;;;;;5031988;28;20025;-68
2021/09/16 01:25:44;;;;;;;5.25;3.13;;;18.20;96.30;;;;;;5050454;28;20086;-68
2021/09/16 01:28:10;;;;;;;4.47;3.50;;;18.20;96.20;;;;;;5049910;28;20017;-68
2021/09/16 01:30:35;;;;;;;3.28;2.90;;;18.20;96.20;;;;;;5050163;28;20047;-68
2021/09/16 01:33:01;;;;;;;6.63;3.08;;;18.20;96.20;;;;;;5049528;28;20032;-68
2021/09/16 01:35:28;;;;;;;3.58;3.28;;;18.20;96.20;;;;;;5048925;28;20421;-68
2021/09/16 01:37:54;;;;;;;3.72;3.30;;;18.20;96.20;;;;;;5050048;28;20104;-68
2021/09/16 01:40:20;;;;;;;3.60;3.17;;;18.10;96.20;;;;;;5050367;28;20025;-68
2021/09/16 01:42:47;;;;;;;4.03;2.95;;;18.10;96.20;;;;;;5047967;28;20028;-69
2021/09/16 01:45:22;;;;;;;4.68;3.75;;;18.10;96.30;;;;;;5050486;28;20028;-68
2021/09/16 01:47:48;;;;;;;5.90;3.53;;;18.10;96.30;;;;;;5049875;28;20021;-68
2021/09/16 01:50:16;;;;;;;5.32;3.38;;;18.10;96.30;;;;;;5049721;28;20119;-68
2021/09/16 01:52:42;;;;;;;6.50;3.50;;;18.10;96.30;;;;;;5049519;28;20040;-68
2021/09/16 01:55:08;;;;;;;5.50;3.42;;;18.10;96.30;;;;;;5032217;28;20025;-68
2021/09/16 01:57:34;;;;;;;7.25;3.97;;;18.10;96.30;;;;;;5050716;28;20032;-68
2021/09/16 01:59:59;;;;;;;4.93;3.30;;;18.10;96.40;;;;;;5053851;28;20342;-68
2021/09/16 02:02:26;;;;;;;5.78;3.85;;;18.10;96.50;;;;;;5036014;28;20029;-68
2021/09/16 02:04:51;;;;;;;4.63;3.50;;;18.10;96.40;;;;;;5053362;28;20053;-68
2021/09/16 02:07:17;;;;;;;3.95;3.10;;;18.10;96.40;;;;;;5054098;28;20057;-68
2021/09/16 02:09:43;;;;;;;4.50;3.35;;;18.10;96.40;;;;;;5035937;28;20036;-68
2021/09/16 02:12:09;;;;;;;4.47;2.90;;;18.10;96.40;;;;;;5054087;28;20104;-68
2021/09/16 02:14:34;;;;;;;3.63;2.83;;;18.10;96.40;;;;;;5053074;28;20107;-68
2021/09/16 02:17:00;;;;;;;4.40;2.80;;;18.00;96.40;;;;;;5053691;28;20473;-68
2021/09/16 02:19:26;;;;;;;4.07;2.78;;;18.10;96.40;;;;;;5053674;28;20039;-68
2021/09/16 02:21:52;;;;;;;7.65;2.65;;;18.00;96.40;;;;;;5053779;28;20488;-68
2021/09/16 02:24:17;;;;;;;3.65;3.03;;;18.00;96.40;;;;;;5053086;28;20032;-68
2021/09/16 02:26:43;;;;;;;3.38;2.85;;;18.00;96.40;;;;;;5053536;28;20079;-68
2021/09/16 02:29:08;;;;;;;3.60;2.85;;;18.00;96.50;;;;;;5053028;28;20044;-68
2021/09/16 02:31:34;;;;;;;3.97;2.67;;;18.00;96.50;;;;;;5053476;28;20100;-68
2021/09/16 02:33:59;;;;;;;6.05;3.10;;;18.00;96.50;;;;;;5053123;28;20032;-68
2021/09/16 02:36:25;;;;;;;3.10;2.65;;;18.00;96.60;;;;;;5053375;28;20485;-68
2021/09/16 02:38:51;;;;;;;5.93;2.72;;;18.00;96.40;;;;;;5053431;28;20021;-68
2021/09/16 02:41:19;;;;;;;3.25;2.95;;;18.00;96.50;;;;;;5053335;28;20108;-68
2021/09/16 02:43:44;;;;;;;4.28;2.85;;;18.00;96.50;;;;;;5060592;23;20041;-69
2021/09/16 02:46:10;;;;;;;5.43;2.72;;;18.00;96.40;;;;;;5048982;28;20446;-68
2021/09/16 02:48:36;;;;;;;5.40;2.70;;;18.00;96.50;;;;;;5050175;28;20386;-69
2021/09/16 02:51:05;;;;;;;4.00;2.97;;;18.00;96.50;;;;;;5018294;28;20022;-68
2021/09/16 02:53:31;;;;;;;3.10;2.67;;;18.00;96.60;;;;;;5010092;28;20063;-69
2021/09/16 02:55:57;;;;;;;2.92;2.72;;;18.00;96.50;;;;;;5032880;28;20017;-69
2021/09/16 02:58:22;;;;;;;4.60;2.80;;;18.00;96.50;;;;;;5032546;28;20398;-68
2021/09/16 03:00:48;;;;;;;4.03;2.88;;;18.10;96.60;;;;;;5032827;28;20029;-68
2021/09/16 03:03:13;;;;;;;4.55;2.88;;;18.00;96.50;;;;;;5032489;28;20104;-68
2021/09/16 03:05:39;;;;;;;3.53;3.17;;;18.10;96.60;;;;;;5033071;28;20473;-69
2021/09/16 03:08:05;;;;;;;4.20;2.65;;;18.10;96.60;;;;;;5032696;28;20056;-69
2021/09/16 03:10:31;;;;;;;2.83;2.63;;;18.10;96.50;;;;;;5032870;28;20026;-68
2021/09/16 03:12:56;;;;;;;3.50;2.92;;;18.00;96.50;;;;;;5032053;28;20116;-68
2021/09/16 03:15:23;;;;;;;5.03;2.83;;;18.00;96.50;;;;;;5032730;28;20112;-69
2021/09/16 03:17:48;;;;;;;2.72;2.47;;;18.00;96.50;;;;;;5032620;28;20057;-68
2021/09/16 03:20:14;;;;;;;3.65;2.80;;;18.00;96.60;;;;;;5032560;28;20032;-67
2021/09/16 03:22:40;;;;;;;3.80;2.90;;;18.00;96.60;;;;;;5032162;28;20029;-69
2021/09/16 03:25:08;;;;;;;4.13;3.50;;;18.00;96.60;;;;;;5032685;28;20026;-68
2021/09/16 03:27:34;;;;;;;3.20;2.78;;;18.00;96.60;;;;;;5031766;28;20087;-69
2021/09/16 03:30:00;;;;;;;3.30;2.50;;;17.90;96.60;;;;;;5032307;28;20142;-67
2021/09/16 03:32:26;;;;;;;4.05;2.97;;;17.90;96.70;;;;;;5031188;28;20021;-69
2021/09/16 03:34:52;;;;;;;4.57;2.95;;;17.90;96.70;;;;;;5031958;28;20025;-68
2021/09/16 03:37:17;;;;;;;3.38;3.08;;;17.90;96.80;;;;;;5032451;28;20512;-69
2021/09/16 03:39:43;;;;;;;3.75;2.40;;;17.90;96.80;;;;;;5032246;28;20029;-68
2021/09/16 03:42:09;;;;;;;2.65;2.45;;;17.90;96.80;;;;;;5031538;28;20033;-68
2021/09/16 03:44:36;;;;;;;2.92;2.72;;;17.90;96.80;;;;;;5031487;28;20084;-68
2021/09/16 03:47:05;;;;;;;2.50;2.22;;;17.90;96.80;;;;;;5014452;28;20022;-68
2021/09/16 03:49:35;;;;;;;2.92;2.08;;;17.90;96.80;;;;;;5032092;28;20029;-68
2021/09/16 03:52:02;;;;;;;2.53;2.25;;;17.90;96.80;;;;;;5032224;28;20028;-67
2021/09/16 03:54:29;;;;;;;2.50;2.30;;;17.80;96.70;;;;;;5016621;28;20033;-69
2021/09/16 03:56:54;;;;;;;3.38;2.15;;;17.90;96.80;;;;;;4998528;28;20030;-69
2021/09/16 03:59:20;;;;;;;2.67;2.47;;;17.90;96.80;;;;;;5031751;28;20036;-68
2021/09/16 04:01:45;;;;;;;2.95;2.38;;;17.90;96.80;;;;;;5030624;28;20024;-69
2021/09/16 04:04:11;;;;;;;2.33;2.22;;;17.90;96.80;;;;;;5031176;28;20018;-67
2021/09/16 04:06:36;;;;;;;2.90;2.15;;;17.90;96.80;;;;;;5030540;28;20021;-69
2021/09/16 04:09:03;;;;;;;2.15;1.95;;;17.90;96.80;;;;;;5032003;28;20029;-68
2021/09/16 04:11:28;;;;;;;2.13;2.03;;;17.90;96.70;;;;;;5031252;28;20034;-68
2021/09/16 04:13:54;;;;;;;2.58;1.85;;;17.90;96.70;;;;;;5031150;28;20040;-69
2021/09/16 04:16:19;;;;;;;3.53;2.10;;;17.90;96.70;;;;;;5031643;28;20045;-67
2021/09/16 04:18:45;;;;;;;3.03;2.40;;;17.90;96.70;;;;;;5031624;28;20052;-69
2021/09/16 04:21:10;;;;;;;2.30;2.10;;;17.90;96.70;;;;;;5012821;28;20033;-68
2021/09/16 04:23:36;;;;;;;3.92;2.38;;;17.80;96.60;;;;;;5031195;28;20021;-69
2021/09/16 04:26:02;;;;;;;3.08;2.15;;;17.80;96.70;;;;;;5030896;28;20063;-68
2021/09/16 04:28:28;;;;;;;2.30;2.13;;;17.80;96.70;;;;;;5029143;28;20078;-67
2021/09/16 04:30:53;;;;;;;3.55;2.58;;;17.80;96.70;;;;;;5011909;28;20050;-69
2021/09/16 04:33:20;;;;;;;3.53;2.17;;;17.80;96.70;;;;;;5011288;28;20036;-69
2021/09/16 04:35:46;;;;;;;2.03;1.85;;;17.80;96.80;;;;;;5011359;28;20105;-69
2021/09/16 04:38:15;;;;;;;4.13;2.45;;;17.80;96.80;;;;;;4993996;28;20389;-68
2021/09/16 04:40:41;;;;;;;3.67;1.90;;;17.80;96.80;;;;;;5011526;28;20032;-69
2021/09/16 04:43:07;;;;;;;2.95;2.22;;;17.80;96.80;;;;;;5010980;28;20017;-69
2021/09/16 04:45:32;;;;;;;2.10;2.00;;;17.80;96.80;;;;;;5011275;28;20475;-67
2021/09/16 04:47:58;;;;;;;3.63;2.33;;;17.80;96.80;;;;;;5011293;28;20034;-68
2021/09/16 04:50:23;;;;;;;2.47;2.22;;;17.80;96.80;;;;;;5011334;28;20535;-69
2021/09/16 04:52:49;;;;;;;2.28;2.08;;;17.80;96.90;;;;;;5010779;28;20037;-69
2021/09/16 04:55:15;;;;;;;5.15;2.05;;;17.80;96.80;;;;;;5011106;28;20030;-68
2021/09/16 04:57:40;;;;;;;2.78;2.35;;;17.80;96.90;;;;;;5029219;28;20133;-69
2021/09/16 05:00:07;;;;;;;2.67;2.33;;;17.80;96.90;;;;;;5031120;28;20655;-68
2021/09/16 05:02:33;;;;;;;2.63;2.42;;;17.80;96.90;;;;;;5012841;28;20032;-68
2021/09/16 05:04:58;;;;;;;3.45;2.38;;;17.80;96.90;;;;;;5030850;28;20018;-68
2021/09/16 05:07:24;;;;;;;8.15;6.65;;;17.80;96.90;;;;;;5030889;28;20029;-68
2021/09/16 05:09:50;;;;;;;2.78;1.73;;;17.80;97.00;;;;;;5030778;28;20064;-69
2021/09/16 05:12:15;;;;;;;2.25;2.05;;;17.80;96.90;;;;;;5030437;28;20033;-68
2021/09/16 05:14:41;;;;;;;5.32;2.00;;;17.80;96.80;;;;;;5030214;28;20385;-68
2021/09/16 05:17:06;;;;;;;2.47;1.98;;;17.70;96.80;;;;;;5030740;28;20029;-68
2021/09/16 05:19:32;;;;;;;2.83;2.53;;;17.70;96.90;;;;;;5030595;28;20017;-69
2021/09/16 05:21:58;;;;;;;3.38;2.40;;;17.60;96.90;;;;;;5030679;28;20029;-68
2021/09/16 05:24:23;;;;;;;5.18;2.20;;;17.60;97.00;;;;;;5029917;28;20029;-68
2021/09/16 05:26:49;;;;;;;3.40;1.90;;;17.70;97.10;;;;;;5015571;28;20025;-68
2021/09/16 05:29:15;;;;;;;3.22;2.17;;;17.70;97.20;;;;;;5030145;28;20084;-69
2021/09/16 05:31:40;;;;;;;2.05;1.95;;;17.60;97.00;;;;;;5029266;28;20068;-69
2021/09/16 05:34:06;;;;;;;3.10;2.22;;;17.60;97.10;;;;;;5029976;28;20547;-68
2021/09/16 05:36:32;;;;;;;5.68;3.10;;;17.60;97.00;;;;;;5030282;28;20030;-68
2021/09/16 05:38:58;;;;;;;2.25;2.05;;;17.60;97.10;;;;;;5030163;28;20052;-68
2021/09/16 05:41:23;;;;;;;2.38;2.00;;;17.60;97.10;;;;;;5030449;28;20021;-68
2021/09/16 05:43:50;;;;;;;2.38;2.17;;;17.60;97.10;;;;;;5029523;28;20654;-69
2021/09/16 05:46:15;;;;;;;3.80;2.88;;;17.60;97.10;;;;;;5030368;28;20018;-68
2021/09/16 05:48:41;;;;;;;5.05;2.20;;;17.60;97.20;;;;;;5030449;28;20026;-68
2021/09/16 05:51:06;;;;;;;4.65;2.10;;;17.60;97.20;;;;;;5030328;28;20029;-68
2021/09/16 05:53:32;;;;;;;3.60;2.17;;;17.60;97.30;;;;;;5030124;28;20048;-67
2021/09/16 05:55:57;;;;;;;3.17;1.90;;;17.60;97.30;;;;;;5030255;28;20037;-69
2021/09/16 05:58:23;;;;;;;4.70;2.55;;;17.70;97.40;;;;;;5029710;28;20032;-68
2021/09/16 06:00:49;;;;;;;2.53;2.08;;;17.70;97.40;;;;;;5012543;28;20030;-68
2021/09/16 06:03:14;;;;;;;3.55;2.53;;;17.70;97.30;;;;;;5012391;28;20024;-68
2021/09/16 06:05:40;;;;;;;2.20;2.00;;;17.70;97.40;;;;;;5030411;28;20021;-69
2021/09/16 06:08:05;;;;;;;3.55;2.15;;;17.70;97.40;;;;;;5030515;28;20100;-68
2021/09/16 06:10:31;;;;;;;2.75;2.22;;;17.70;97.40;;;;;;5030447;28;20030;-68
2021/09/16 06:12:57;;;;;;;2.95;2.20;;;17.70;97.40;;;;;;5029126;28;20095;-67
2021/09/16 06:15:23;;;;;;;3.08;2.25;;;17.70;97.50;;;;;;5030286;28;20435;-68
2021/09/16 06:17:48;;;;;;;2.78;2.13;;;17.80;97.50;;;;;;5030437;28;20044;-67
2021/09/16 06:20:14;;;;;;;2.40;2.20;;;17.70;97.40;;;;;;5030136;28;20028;-68
2021/09/16 06:22:40;;;;;;;3.22;2.45;;;17.70;97.40;;;;;;5029556;28;20036;-68
2021/09/16 06:25:06;;;;;;;4.78;2.38;;;17.70;97.40;;;;;;5030144;28;20018;-69
2021/09/16 06:27:32;;;;;;;5.78;2.35;;;17.70;97.50;;;;;;5029084;28;20029;-68
2021/09/16 06:29:58;;;;;;;6.85;4.57;;;17.70;97.50;;;;;;5012140;28;20025;-68
2021/09/16 06:32:24;;;;;;;2.88;2.28;;;17.70;97.60;;;;;;5030079;28;20052;-69
2021/09/16 06:34:50;;;;;;;3.88;2.40;;;17.70;97.50;;;;;;5029548;28;20477;-68
2021/09/16 06:37:15;;;;;;;6.15;2.13;;;17.70;97.50;;;;;;5029888;28;20469;-68
2021/09/16 06:39:41;;;;;;;8.00;2.50;;;17.70;97.60;;;;;;5030291;28;20035;-69
2021/09/16 06:42:06;;;;;;;2.88;2.30;;;17.70;97.60;;;;;;5030123;28;20025;-68
2021/09/16 06:44:32;;;;;;;2.63;2.40;;;17.70;97.60;;;;;;5031791;28;20029;-68
2021/09/16 06:46:57;;;;;;;4.40;2.20;;;17.80;97.60;;;;;;5033760;28;20048;-68
2021/09/16 06:49:23;;;;;;;3.75;2.50;;;17.80;97.70;;;;;;5033395;28;20139;-69
2021/09/16 06:51:49;;;;;;;4.03;2.20;;;17.80;97.70;;;;;;5033524;28;20037;-68
2021/09/16 06:54:14;;;;;;;3.40;2.30;;;17.80;97.70;;;;;;5033336;28;20032;-68
2021/09/16 06:56:40;;;;;;;4.03;2.50;;;17.80;97.80;;;;;;5033599;28;20064;-68
2021/09/16 06:59:05;;;;;;;6.13;2.55;;;17.80;97.80;;;;;;5033519;28;20026;-68
2021/09/16 07:01:33;;;;;;;2.83;2.13;;;17.80;97.80;;;;;;5033741;28;20184;-69
2021/09/16 07:03:59;;;;;;;5.55;3.03;;;17.80;97.70;;;;;;5032606;28;20477;-68
2021/09/16 07:06:24;;;;;;;2.40;2.20;;;17.80;97.70;;;;;;5033190;28;20056;-68
2021/09/16 07:08:52;;;;;;;5.35;2.20;;;17.80;97.70;;;;;;5033324;28;20061;-68
2021/09/16 07:11:18;;;;;;;5.18;2.47;;;17.80;97.70;;;;;;5033373;28;20108;-68
2021/09/16 07:13:43;;;;;;;5.70;2.55;;;17.80;97.70;;;;;;5032777;28;20029;-68
2021/09/16 07:16:09;;;;;;;3.05;2.15;;;17.80;97.70;;;;;;5033197;28;20466;-69
2021/09/16 07:18:35;;;;;;;9.10;2.42;;;17.80;97.70;;;;;;5032834;28;20029;-68
2021/09/16 07:21:01;;;;;;;9.85;3.20;;;17.80;97.70;;;;;;5032888;28;20389;-68
2021/09/16 07:23:27;;;;;;;5.88;2.25;;;17.80;97.90;;;;;;5032529;28;20220;-69
2021/09/16 07:25:52;;;;;;;5.38;2.67;;;17.80;97.80;;;;;;5030552;28;20139;-68
2021/09/16 07:28:18;;;;;;;4.90;2.30;;;17.70;97.80;;;;;;5012924;28;20048;-68
2021/09/16 07:30:43;;;;;;;4.68;2.35;;;17.70;97.80;;;;;;5013080;28;20033;-68
2021/09/16 07:33:09;;;;;;;7.20;2.42;;;17.80;97.80;;;;;;5016770;28;20025;-68
2021/09/16 07:35:34;;;;;;;6.93;2.40;;;17.70;97.80;;;;;;5032390;28;20033;-67
2021/09/16 07:38:00;;;;;;;6.75;2.47;;;17.70;97.70;;;;;;5032897;28;20017;-68
2021/09/16 07:40:26;;;;;;;8.30;2.30;;;17.70;97.80;;;;;;5032485;28;20330;-69
2021/09/16 07:42:51;;;;;;;5.63;2.67;;;17.70;97.80;;;;;;5032600;28;20025;-67
2021/09/16 07:45:17;;;;;;;7.18;2.60;;;17.60;97.80;;;;;;5032753;28;20084;-70
2021/09/16 07:47:42;;;;;;;8.30;3.03;;;17.60;97.80;;;;;;5032159;28;20056;-67
2021/09/16 07:50:09;;;;;;;4.55;2.58;;;17.60;97.80;;;;;;5032038;28;20033;-67
2021/09/16 07:52:34;;;;;;;5.53;3.10;;;17.60;97.90;;;;;;5032078;28;20025;-68
2021/09/16 07:55:00;;;;;;;4.93;2.97;;;17.60;98.00;;;;;;5031232;28;20033;-68
2021/09/16 07:57:26;;;;;;;3.53;3.20;;;17.60;97.90;;;;;;5032275;28;20025;-67
2021/09/16 07:59:51;;;;;;;6.43;3.50;;;17.60;98.00;;;;;;5032281;28;20029;-69
2021/09/16 08:02:17;;;;;;;6.88;5.45;;;17.60;98.00;;;;;;5032115;28;20450;-70
2021/09/16 08:04:43;;;;;;;10.40;6.20;;;17.60;98.00;;;;;;5031702;28;20025;-67
2021/09/16 08:07:09;;;;;;;11.23;7.45;;;17.60;98.10;;;;;;5031631;28;20076;-68
2021/09/16 08:09:34;;;;;;;11.30;7.78;;;17.60;98.10;;;;;;5030943;28;20112;-68
2021/09/16 08:12:00;;;;;;;16.45;9.45;;;17.60;98.20;;;;;;5032100;28;20163;-68
2021/09/16 08:14:26;;;;;;;10.93;7.05;;;17.60;98.20;;;;;;5031637;28;20032;-69
2021/09/16 08:16:52;;;;;;;8.75;6.20;;;17.60;98.20;;;;;;5031351;28;20087;-70
2021/09/16 08:19:17;;;;;;;7.15;5.97;;;17.50;98.20;;;;;;5031991;28;20021;-67
2021/09/16 08:21:43;;;;;;;7.13;5.28;;;17.50;98.20;;;;;;5031821;28;20350;-68
2021/09/16 08:24:08;;;;;;;6.05;5.07;;;17.50;98.20;;;;;;5031453;28;20115;-68
2021/09/16 08:26:34;;;;;;;5.70;4.75;;;17.50;98.30;;;;;;5028850;28;20032;-68
2021/09/16 08:29:00;;;;;;;5.65;4.78;;;17.60;98.30;;;;;;5011826;28;20044;-69
2021/09/16 08:31:26;;;;;;;7.72;5.35;;;17.60;98.40;;;;;;5012190;28;20026;-67
2021/09/16 08:33:52;;;;;;;7.30;5.57;;;17.60;98.40;;;;;;5030036;28;20025;-68
2021/09/16 08:36:18;;;;;;;5.57;4.78;;;17.70;98.30;;;;;;5031687;28;20050;-68
2021/09/16 08:38:44;;;;;;;6.03;4.90;;;17.70;98.30;;;;;;5031468;28;20052;-67
2021/09/16 08:41:10;;;;;;;5.95;5.22;;;17.70;98.30;;;;;;5031646;28;20048;-68
2021/09/16 08:43:38;;;;;;;6.95;5.93;;;17.70;98.30;;;;;;5043973;22;20388;-68
2021/09/16 08:46:05;;;;;;;8.20;6.60;;;17.70;98.20;;;;;;5030171;28;20080;-67
2021/09/16 08:48:31;;;;;;;10.32;7.45;;;17.70;98.20;;;;;;5028751;28;20535;-68
2021/09/16 08:50:57;;;;;;;9.93;7.45;;;17.70;98.30;;;;;;5012304;28;20056;-67
2021/09/16 08:53:30;;;;;;;9.25;6.65;;;17.70;98.30;;;;;;5029651;28;20032;-67
2021/09/16 08:55:59;;;;;;;7.60;5.90;;;17.70;98.30;;;;;;5030301;28;20022;-67
2021/09/16 08:58:28;;;;;;;7.53;5.78;;;17.70;98.20;;;;;;5012109;28;20053;-68
2021/09/16 09:00:53;;;;;;;6.22;5.18;;;17.70;98.20;;;;;;5029738;28;20071;-66
2021/09/16 09:03:19;;;;;;;6.30;5.32;;;17.70;98.10;;;;;;5029392;28;20069;-67
2021/09/16 09:05:45;;;;;;;6.63;5.68;;;17.60;98.10;;;;;;5029833;28;20566;-66
2021/09/16 09:08:12;;;;;;;12.15;6.35;;;17.60;98.10;;;;;;5029713;28;20622;-67
2021/09/16 09:10:48;;;;;;;7.57;6.18;;;17.60;98.10;;;;;;5029918;28;20500;-67
2021/09/16 09:13:19;;;;;;;8.60;6.18;;;17.60;98.10;;;;;;5028606;28;20485;-66
2021/09/16 09:15:48;;;;;;;9.75;7.60;;;17.60;98.10;;;;;;5029764;28;20385;-66
2021/09/16 09:18:19;;;;;;;9.43;7.05;;;17.50;98.00;;;;;;5029844;28;20117;-67
2021/09/16 09:20:57;;;;;;;8.80;7.20;;;17.50;98.00;;;;;;5029638;28;20041;-66
2021/09/16 09:23:41;;;;;;;8.13;6.30;;;17.50;98.00;;;;;;5029386;28;20097;-66
2021/09/16 09:26:26;;;;;;;7.40;5.53;;;17.50;98.00;;;;;;5025240;28;20049;-66
2021/09/16 09:28:56;;;;;;;7.80;5.78;;;17.50;98.00;;;;;;5022311;28;20033;-66
2021/09/16 09:31:24;;;;;;;6.47;5.75;;;17.50;98.00;;;;;;5029611;28;20022;-67
2021/09/16 09:33:50;;;;;;;7.28;6.15;;;17.50;98.00;;;;;;5029257;28;20104;-67
2021/09/16 09:36:20;;;;;;;6.63;5.90;;;17.50;97.90;;;;;;5029139;28;20033;-67
2021/09/16 09:38:56;;;;;;;6.70;5.63;;;17.50;98.00;;;;;;5011846;28;20026;-67
2021/09/16 09:41:34;;;;;;;7.93;6.35;;;17.50;98.00;;;;;;5029696;28;20022;-68
2021/09/16 09:44:07;;;;;;;6.68;5.47;;;17.50;98.10;;;;;;4991889;28;1072882;-67
2021/09/16 09:46:53;;;;;;;7.72;6.43;;;17.60;98.00;;;;;;5030203;28;20481;-68
2021/09/16 09:49:24;;;;;;;8.70;6.90;;;17.60;98.10;;;;;;5030467;28;20085;-67
2021/09/16 09:51:56;;;;;;;8.07;7.20;;;17.60;97.90;;;;;;5030120;28;20405;-66
2021/09/16 09:54:32;;;;;;;12.13;9.15;;;17.50;97.90;;;;;;5029991;28;20505;-67
2021/09/16 09:57:09;;;;;;;12.88;9.57;;;17.50;97.90;;;;;;5029334;28;20347;-68
2021/09/16 09:59:59;;;;;;;12.88;9.30;;;17.40;97.80;;;;;;5019600;28;20338;-68
2021/09/16 10:02:45;;;;;;;12.15;10.35;;;17.30;98.00;;;;;;5030117;28;20704;-67
2021/09/16 10:05:28;;;;;;;31.15;21.13;;;17.30;97.90;;;;;;5031579;28;20024;-68
2021/09/16 10:07:56;;;;;;;20.92;13.90;;;17.30;98.00;;;;;;5032002;28;20027;-68
2021/09/16 10:10:23;;;;;;;23.58;14.43;;;17.30;97.90;;;;;;5030145;28;20185;-68
2021/09/16 10:12:54;;;;;;;23.70;14.52;;;17.30;97.90;;;;;;5029276;28;20025;-67
2021/09/16 10:15:21;;;;;;;21.42;14.10;;;17.20;97.90;;;;;;5030215;28;20021;-67
2021/09/16 10:17:50;;;;;;;28.10;15.85;;;17.20;98.00;;;;;;5029985;28;20026;-67
2021/09/16 10:20:17;;;;;;;28.67;16.90;;;17.20;97.90;;;;;;5033389;28;20068;-67
2021/09/16 10:22:48;;;;;;;26.35;16.77;;;17.20;97.90;;;;;;5033127;28;20024;-68
2021/09/16 10:25:15;;;;;;;28.05;16.98;;;17.10;97.80;;;;;;5033878;28;20065;-68
2021/09/16 10:27:46;;;;;;;30.83;18.58;;;17.10;97.80;;;;;;5033293;28;20021;-68
2021/09/16 10:30:21;;;;;;;27.65;17.10;;;17.10;97.80;;;;;;5033638;28;20109;-67
2021/09/16 10:32:57;;;;;;;28.85;16.80;;;17.10;97.80;;;;;;5032983;28;20338;-68
2021/09/16 10:35:23;;;;;;;30.38;18.25;;;17.10;97.70;;;;;;5033648;28;20030;-68
2021/09/16 10:37:50;;;;;;;27.40;17.25;;;17.10;97.80;;;;;;5033623;28;20026;-68
2021/09/16 10:40:26;;;;;;;28.02;17.48;;;17.20;97.80;;;;;;5033421;28;20057;-67
2021/09/16 10:43:02;;;;;;;27.60;16.92;;;17.20;97.90;;;;;;5032446;28;20710;-68
2021/09/16 10:45:39;;;;;;;19.55;13.57;;;17.30;97.90;;;;;;5033412;28;20473;-68
2021/09/16 10:48:14;;;;;;;24.00;15.55;;;17.30;97.90;;;;;;5033489;28;20021;-68
2021/09/16 10:50:52;;;;;;;23.63;15.10;;;17.30;98.00;;;;;;5033160;28;20025;-68
2021/09/16 10:53:36;;;;;;;24.15;15.32;;;17.30;97.80;;;;;;5033118;28;20481;-68
2021/09/16 10:56:25;;;;;;;27.45;15.02;;;17.30;97.80;;;;;;5033429;28;20556;-67
2021/09/16 10:58:53;;;;;;;18.95;13.32;;;17.30;97.80;;;;;;5013459;28;20052;-69
2021/09/16 11:01:49;;;;;;;23.23;15.10;;;17.30;97.70;;;;;;5013097;28;20521;-68
2021/09/16 11:04:15;;;;;;;22.77;14.93;;;17.30;97.70;;;;;;5012755;28;20026;-68
2021/09/16 11:06:41;;;;;;;22.48;15.98;;;17.30;97.70;;;;;;5012938;28;20026;-69
2021/09/16 11:09:07;;;;;;;24.23;15.50;;;17.30;97.70;;;;;;5013202;28;20487;-69
2021/09/16 11:11:50;;;;;;;26.75;17.15;;;17.30;97.80;;;;;;5029800;28;20028;-68
2021/09/16 11:14:35;;;;;;;25.38;16.52;;;17.30;97.70;;;;;;5032205;28;20087;-68
2021/09/16 11:17:03;;;;;;;29.95;17.98;;;17.30;97.80;;;;;;5032749;28;20036;-69
2021/09/16 11:19:29;;;;;;;27.55;18.05;;;17.20;97.70;;;;;;5032755;28;20021;-68
2021/09/16 11:22:07;;;;;;;28.92;18.52;;;17.20;97.70;;;;;;5032471;28;20014;-68
2021/09/16 11:24:35;;;;;;;31.75;18.13;;;17.20;97.70;;;;;;5013719;28;20026;-68
2021/09/16 11:27:00;;;;;;;27.08;16.70;;;17.20;97.80;;;;;;5032384;28;20087;-68
2021/09/16 11:29:36;;;;;;;29.60;18.63;;;17.20;97.80;;;;;;5032166;28;20448;-68
2021/09/16 11:32:03;;;;;;;31.50;18.98;;;17.20;97.70;;;;;;5032459;28;20030;-68
2021/09/16 11:34:29;;;;;;;27.52;17.70;;;17.20;97.70;;;;;;5031687;28;20030;-69
2021/09/16 11:37:11;;;;;;;27.23;18.58;;;17.10;97.90;;;;;;5032024;28;20035;-68
2021/09/16 11:39:37;;;;;;;29.75;17.70;;;17.10;97.80;;;;;;5031648;28;20025;-69
2021/09/16 11:42:20;;;;;;;29.02;17.77;;;17.20;97.80;;;;;;5032160;28;20147;-69
2021/09/16 11:44:55;;;;;;;27.70;17.38;;;17.20;97.70;;;;;;5031546;28;20115;-68
2021/09/16 11:47:21;;;;;;;27.15;16.95;;;17.20;97.70;;;;;;5014299;28;20506;-68
2021/09/16 11:49:46;;;;;;;27.95;17.35;;;17.20;97.70;;;;;;5031701;28;20075;-68
2021/09/16 11:52:21;;;;;;;25.10;16.42;;;17.20;97.60;;;;;;5032202;28;20397;-69
2021/09/16 11:55:07;;;;;;;27.10;17.83;;;17.10;97.50;;;;;;5031276;28;20047;-69
2021/09/16 11:57:52;;;;;;;28.00;16.48;;;17.10;97.50;;;;;;5031814;28;20052;-69
2021/09/16 12:00:26;;;;;;;26.20;16.63;;;17.10;97.60;;;;;;5017102;28;20033;-68
2021/09/16 12:02:52;;;;;;;25.17;16.58;;;17.10;97.60;;;;;;5011565;28;20026;-69
2021/09/16 12:05:36;;;;;;;24.77;16.80;;;17.20;97.70;;;;;;5011982;28;20068;-68
2021/09/16 12:08:04;;;;;;;25.05;15.82;;;17.20;97.70;;;;;;5011945;28;20102;-68
2021/09/16 12:10:43;;;;;;;23.17;16.17;;;17.20;97.60;;;;;;5028742;28;20453;-68
2021/09/16 12:13:12;;;;;;;30.77;17.35;;;17.20;97.70;;;;;;5031012;28;20021;-68
2021/09/16 12:15:37;;;;;;;27.98;15.90;;;17.20;97.60;;;;;;5031668;28;20049;-69
2021/09/16 12:18:05;;;;;;;25.02;16.25;;;17.30;97.60;;;;;;5031460;28;20064;-69
2021/09/16 12:20:31;;;;;;;26.08;16.30;;;17.30;97.60;;;;;;5031431;28;20029;-69
2021/09/16 12:22:57;;;;;;;53.03;36.97;;;17.30;97.60;;;;;;5030830;28;20429;-68
2021/09/16 12:25:23;;;;;;;27.23;18.73;;;17.30;97.60;;;;;;5030739;28;20248;-68
2021/09/16 12:28:06;;;;;;;24.67;16.10;;;17.30;97.70;;;;;;5031205;28;20032;-68
2021/09/16 12:30:37;;;;;;;22.15;14.80;;;17.40;97.60;;;;;;5031625;28;20030;-68
2021/09/16 12:33:22;;;;;;;23.88;16.02;;;17.40;97.60;;;;;;5032648;28;20041;-69
2021/09/16 12:36:08;;;;;;;24.27;15.77;;;17.50;97.60;;;;;;5031619;28;20025;-68
2021/09/16 12:39:02;;;;;;;23.40;15.60;;;17.50;97.50;;;;;;5031051;28;20033;-68
2021/09/16 12:41:34;;;;;;;22.38;14.63;;;17.60;97.70;;;;;;5030759;28;20029;-69
2021/09/16 12:44:05;;;;;;;22.73;15.57;;;17.70;97.50;;;;;;5030425;28;20124;-69
2021/09/16 12:46:46;;;;;;;23.35;15.73;;;17.80;97.50;;;;;;5031005;28;20445;-68